MET'MAP v2.0
soon released !

Expected late october,
this new version will be
more efficient, smarter,
and hosted on a brand new
server x3 powerfull...
...and still free !


Not compatible ?
Try the mobile version !

LOG IN : | Subscribe | Disclaimer | Who is Orbifly ? |
ICAO code :

TAF - LFYR Romorantin Pruniers - 13 Dec 2019 09:34 UTC
Data Sources :     NOAA   


- Airport Elevation : 289 ft
- No reported NOTAMs.


LFYR - Romorantin Pruniers

Latest METAR recorded : 2019/12/13 08:00 LFYR 130800Z AUTO 27013G24KT 230V310 9999 FEW030 08/03 Q0988 TEMPO 25030G45KT 3000 TSRA BKN020CB
NO TAF


MET'MAP, your aeronautical weather chart ! - Copyright ORBIFLY December 2007

Programming & Development : Alexandra Zaïnal
Co-Developer : Marc-Olivier Méhu
Technical & hardware support : Manuel Goepfert
Concept & Financing : Baudouin d'Aumeries